Sultan Atasoy — TCYG9 — position and weather

sailwx.info

Track history (hours):
 
Tides and Currents Weather Stations Pressure Air Temp Water Temp Dewpoint Dewpoint Depression Visibility Wind Speed Wind Dir Waves Ship Positions

Sultan Atasoy

Last reported at 2015-Mar-24 03:20 UTC. Time now 2015-Mar-27 06:56 UTC.
Position N 39°55' E 024°05'.

Length 109 m; draft 4.3 m.

Type: Ship. MMSI: 271040963.

Date/timePositionNaut miles runAvg speedWind from/ knotsBaromVisibWave heightAir tempDewpointWater temp
2015-Mar-24 03:20N 39°55' E 024°05'3111.0
2015-Mar-24 00:33N 40°01' E 024°44'1211.6
2015-Mar-23 23:31N 40°03' E 024°60'1511.4
2015-Mar-23 22:12N 40°05' E 025°19'15910.7
2015-Mar-23 07:24N 40°53' E 028°38'910.8
2015-Mar-23 06:33N 40°55' E 028°50'9 9.4
2015-Mar-23 05:33N 41°01' E 028°60'  
2015-Mar-20 03:11N 43°56' E 038°46'811.0
2015-Mar-20 02:27N 44°01' E 038°56'8 6.7
2015-Mar-20 01:14N 44°06' E 039°04'0 0.0
2015-Mar-20 00:25N 44°06' E 039°04'0 0.0
2015-Mar-19 23:28N 44°06' E 039°04'0 0.0
2015-Mar-19 16:13N 44°06' E 039°04'0 0.0
2015-Mar-19 11:07N 44°06' E 039°04'0 0.0
2015-Mar-19 02:26N 44°06' E 039°04'0 0.0
2015-Mar-19 00:32N 44°06' E 039°04'0 0.0
2015-Mar-18 23:30N 44°06' E 039°04'0 0.0
2015-Mar-18 20:04N 44°06' E 039°04'2 0.1
2015-Mar-18 00:25N 44°04' E 039°05'0 0.0
2015-Mar-17 14:09N 44°04' E 039°05'7 8.5
2015-Mar-17 13:19N 44°06' E 038°55'1310.3
2015-Mar-17 12:06N 44°12' E 038°40'5 9.4
2015-Mar-17 11:31N 44°14' E 038°34'41 9.4
2015-Mar-17 07:11N 44°29' E 037°41'6 8.2
2015-Mar-17 06:26N 44°32' E 037°33'9 9.1
2015-Mar-17 05:24N 44°37' E 037°22'89 7.4
2015-Mar-16 17:26N 44°42' E 035°18'7 7.7
2015-Mar-16 16:33N 44°40' E 035°09'7 7.4
2015-Mar-16 15:34N 44°37' E 034°59'7 7.5
2015-Mar-16 14:33N 44°34' E 034°49'8 7.7
2015-Mar-16 13:33N 44°30' E 034°40'8 8.3
2015-Mar-16 12:33N 44°25' E 034°32'8 7.9
2015-Mar-16 11:33N 44°19' E 034°24'8 7.7
2015-Mar-16 10:33N 44°14' E 034°16'9 8.0
2015-Mar-16 09:23N 44°08' E 034°06'248 9.9
2015-Mar-15 08:23N 41°35' E 029°39'910.9
2015-Mar-15 07:33N 41°30' E 029°29'  
Track history (hours):
 
Tides and Currents Weather Stations Pressure Air Temp Water Temp Dewpoint Dewpoint Depression Visibility Wind Speed Wind Dir Waves Ship Positions

Sultan Atasoy

Last reported at 2015-Mar-24 03:20 UTC. Time now 2015-Mar-27 06:56 UTC.
Position N 39°55' E 024°05'.

Length 109 m; draft 4.3 m.

Type: Ship. MMSI: 271040963.

Date/timePositionNaut miles runAvg speedWind from/ knotsBaromVisibWave heightAir tempDewpointWater temp
2015-Mar-24 03:20N 39°55' E 024°05'3111.0
2015-Mar-24 00:33N 40°01' E 024°44'1211.6
2015-Mar-23 23:31N 40°03' E 024°60'1511.4
2015-Mar-23 22:12N 40°05' E 025°19'15910.7
2015-Mar-23 07:24N 40°53' E 028°38'910.8
2015-Mar-23 06:33N 40°55' E 028°50'9 9.4
2015-Mar-23 05:33N 41°01' E 028°60'  
2015-Mar-20 03:11N 43°56' E 038°46'811.0
2015-Mar-20 02:27N 44°01' E 038°56'8 6.7
2015-Mar-20 01:14N 44°06' E 039°04'0 0.0
2015-Mar-20 00:25N 44°06' E 039°04'0 0.0
2015-Mar-19 23:28N 44°06' E 039°04'0 0.0
2015-Mar-19 16:13N 44°06' E 039°04'0 0.0
2015-Mar-19 11:07N 44°06' E 039°04'0 0.0
2015-Mar-19 02:26N 44°06' E 039°04'0 0.0
2015-Mar-19 00:32N 44°06' E 039°04'0 0.0
2015-Mar-18 23:30N 44°06' E 039°04'0 0.0
2015-Mar-18 20:04N 44°06' E 039°04'2 0.1
2015-Mar-18 00:25N 44°04' E 039°05'0 0.0
2015-Mar-17 14:09N 44°04' E 039°05'7 8.5
2015-Mar-17 13:19N 44°06' E 038°55'1310.3
2015-Mar-17 12:06N 44°12' E 038°40'5 9.4
2015-Mar-17 11:31N 44°14' E 038°34'41 9.4
2015-Mar-17 07:11N 44°29' E 037°41'6 8.2
2015-Mar-17 06:26N 44°32' E 037°33'9 9.1
2015-Mar-17 05:24N 44°37' E 037°22'89 7.4
2015-Mar-16 17:26N 44°42' E 035°18'7 7.7
2015-Mar-16 16:33N 44°40' E 035°09'7 7.4
2015-Mar-16 15:34N 44°37' E 034°59'7 7.5
2015-Mar-16 14:33N 44°34' E 034°49'8 7.7
2015-Mar-16 13:33N 44°30' E 034°40'8 8.3
2015-Mar-16 12:33N 44°25' E 034°32'8 7.9
2015-Mar-16 11:33N 44°19' E 034°24'8 7.7
2015-Mar-16 10:33N 44°14' E 034°16'9 8.0
2015-Mar-16 09:23N 44°08' E 034°06'248 9.9
2015-Mar-15 08:23N 41°35' E 029°39'910.9
2015-Mar-15 07:33N 41°30' E 029°29'  

Dump ship's entire track history